sensor_id;sensor_type;location;lat;lon;timestamp;temperature;humidity
45339;DHT22;31071;51.478;5.710;2023-05-07T00:00:33;14.60;99.90
45339;DHT22;31071;51.478;5.710;2023-05-07T00:02:59;14.50;99.90
45339;DHT22;31071;51.478;5.710;2023-05-07T00:05:25;14.50;99.90
45339;DHT22;31071;51.478;5.710;2023-05-07T00:07:51;14.50;99.90
45339;DHT22;31071;51.478;5.710;2023-05-07T00:10:18;14.40;99.90
45339;DHT22;31071;51.478;5.710;2023-05-07T00:12:43;14.20;99.90
45339;DHT22;31071;51.478;5.710;2023-05-07T00:15:09;14.40;99.90
45339;DHT22;31071;51.478;5.710;2023-05-07T00:17:35;14.40;99.90
45339;DHT22;31071;51.478;5.710;2023-05-07T00:20:01;14.30;99.90
45339;DHT22;31071;51.478;5.710;2023-05-07T00:22:27;14.40;99.90
45339;DHT22;31071;51.478;5.710;2023-05-07T00:24:55;14.40;99.90
45339;DHT22;31071;51.478;5.710;2023-05-07T00:27:21;14.50;99.90
45339;DHT22;31071;51.478;5.710;2023-05-07T00:29:47;14.50;99.90
45339;DHT22;31071;51.478;5.710;2023-05-07T00:32:12;14.50;99.90
45339;DHT22;31071;51.478;5.710;2023-05-07T00:34:38;14.50;99.90
45339;DHT22;31071;51.478;5.710;2023-05-07T00:37:04;14.50;99.90
45339;DHT22;31071;51.478;5.710;2023-05-07T00:39:30;14.50;99.90
45339;DHT22;31071;51.478;5.710;2023-05-07T00:41:55;14.40;99.90
45339;DHT22;31071;51.478;5.710;2023-05-07T00:44:21;14.40;99.90
45339;DHT22;31071;51.478;5.710;2023-05-07T00:46:46;14.40;99.90
45339;DHT22;31071;51.478;5.710;2023-05-07T00:49:15;14.30;99.90
45339;DHT22;31071;51.478;5.710;2023-05-07T00:51:40;14.30;99.90
45339;DHT22;31071;51.478;5.710;2023-05-07T00:54:07;14.20;99.90
45339;DHT22;31071;51.478;5.710;2023-05-07T00:56:33;14.20;99.90
45339;DHT22;31071;51.478;5.710;2023-05-07T00:58:58;14.10;99.90
45339;DHT22;31071;51.478;5.710;2023-05-07T01:01:25;14.90;99.90
45339;DHT22;31071;51.478;5.710;2023-05-07T01:03:51;14.10;99.90
45339;DHT22;31071;51.478;5.710;2023-05-07T01:06:17;14.10;99.90
45339;DHT22;31071;51.478;5.710;2023-05-07T01:08:44;14.10;99.90
45339;DHT22;31071;51.478;5.710;2023-05-07T01:11:11;14.10;99.90
45339;DHT22;31071;51.478;5.710;2023-05-07T01:13:37;14.10;99.90
45339;DHT22;31071;51.478;5.710;2023-05-07T01:16:03;14.10;99.90
45339;DHT22;31071;51.478;5.710;2023-05-07T01:18:29;14.00;99.90
45339;DHT22;31071;51.478;5.710;2023-05-07T01:20:58;14.00;99.90
45339;DHT22;31071;51.478;5.710;2023-05-07T01:23:25;14.00;99.90
45339;DHT22;31071;51.478;5.710;2023-05-07T01:25:55;14.00;99.90
45339;DHT22;31071;51.478;5.710;2023-05-07T01:28:20;14.00;99.90
45339;DHT22;31071;51.478;5.710;2023-05-07T01:30:49;14.00;99.90
45339;DHT22;31071;51.478;5.710;2023-05-07T01:33:20;14.10;99.90
45339;DHT22;31071;51.478;5.710;2023-05-07T01:35:49;14.20;99.90
45339;DHT22;31071;51.478;5.710;2023-05-07T01:38:16;14.20;99.90
45339;DHT22;31071;51.478;5.710;2023-05-07T01:40:42;15.90;99.90
45339;DHT22;31071;51.478;5.710;2023-05-07T01:43:09;14.20;99.90
45339;DHT22;31071;51.478;5.710;2023-05-07T01:45:35;14.10;99.90
45339;DHT22;31071;51.478;5.710;2023-05-07T01:48:02;14.10;99.90
45339;DHT22;31071;51.478;5.710;2023-05-07T01:50:28;14.10;99.90
45339;DHT22;31071;51.478;5.710;2023-05-07T01:52:55;14.10;99.90
45339;DHT22;31071;51.478;5.710;2023-05-07T01:55:21;14.10;99.90
45339;DHT22;31071;51.478;5.710;2023-05-07T01:57:46;14.10;99.90
45339;DHT22;31071;51.478;5.710;2023-05-07T02:00:12;14.10;99.90
45339;DHT22;31071;51.478;5.710;2023-05-07T02:02:37;14.20;99.90
45339;DHT22;31071;51.478;5.710;2023-05-07T02:05:04;14.20;99.90
45339;DHT22;31071;51.478;5.710;2023-05-07T02:07:29;14.20;99.90
45339;DHT22;31071;51.478;5.710;2023-05-07T02:09:55;14.20;99.90
45339;DHT22;31071;51.478;5.710;2023-05-07T02:12:21;14.20;99.90
45339;DHT22;31071;51.478;5.710;2023-05-07T02:14:47;14.10;99.90
45339;DHT22;31071;51.478;5.710;2023-05-07T02:17:12;14.20;99.90
45339;DHT22;31071;51.478;5.710;2023-05-07T02:19:38;14.20;99.90
45339;DHT22;31071;51.478;5.710;2023-05-07T02:22:03;14.20;99.90
45339;DHT22;31071;51.478;5.710;2023-05-07T02:24:29;14.10;99.90
45339;DHT22;31071;51.478;5.710;2023-05-07T02:26:55;15.40;99.90
45339;DHT22;31071;51.478;5.710;2023-05-07T02:29:21;14.10;99.90
45339;DHT22;31071;51.478;5.710;2023-05-07T02:31:46;14.10;99.90
45339;DHT22;31071;51.478;5.710;2023-05-07T02:34:16;14.00;99.90
45339;DHT22;31071;51.478;5.710;2023-05-07T02:36:41;14.00;99.90
45339;DHT22;31071;51.478;5.710;2023-05-07T02:39:07;14.00;99.90
45339;DHT22;31071;51.478;5.710;2023-05-07T02:41:33;14.00;99.90
45339;DHT22;31071;51.478;5.710;2023-05-07T02:43:58;14.00;99.90
45339;DHT22;31071;51.478;5.710;2023-05-07T02:46:24;14.10;99.90
45339;DHT22;31071;51.478;5.710;2023-05-07T02:48:49;14.00;99.90
45339;DHT22;31071;51.478;5.710;2023-05-07T02:51:16;14.00;99.90
45339;DHT22;31071;51.478;5.710;2023-05-07T02:53:41;13.90;99.90
45339;DHT22;31071;51.478;5.710;2023-05-07T02:56:07;14.00;99.90
45339;DHT22;31071;51.478;5.710;2023-05-07T02:58:32;14.00;99.90
45339;DHT22;31071;51.478;5.710;2023-05-07T03:00:58;14.00;99.90
45339;DHT22;31071;51.478;5.710;2023-05-07T03:03:24;14.00;99.90
45339;DHT22;31071;51.478;5.710;2023-05-07T03:05:49;14.10;99.90
45339;DHT22;31071;51.478;5.710;2023-05-07T03:08:15;14.00;99.90
45339;DHT22;31071;51.478;5.710;2023-05-07T03:10:40;14.00;99.90
45339;DHT22;31071;51.478;5.710;2023-05-07T03:13:06;14.00;99.90
45339;DHT22;31071;51.478;5.710;2023-05-07T03:15:31;13.90;99.90
45339;DHT22;31071;51.478;5.710;2023-05-07T03:17:57;13.90;99.90
45339;DHT22;31071;51.478;5.710;2023-05-07T03:20:23;13.90;99.90
45339;DHT22;31071;51.478;5.710;2023-05-07T03:22:48;13.90;99.90
45339;DHT22;31071;51.478;5.710;2023-05-07T03:25:14;13.90;99.90
45339;DHT22;31071;51.478;5.710;2023-05-07T03:27:40;13.90;99.90
45339;DHT22;31071;51.478;5.710;2023-05-07T03:30:07;13.90;99.90
45339;DHT22;31071;51.478;5.710;2023-05-07T03:32:34;13.90;99.90
45339;DHT22;31071;51.478;5.710;2023-05-07T03:35:00;13.90;99.90
45339;DHT22;31071;51.478;5.710;2023-05-07T03:37:26;13.90;99.90
45339;DHT22;31071;51.478;5.710;2023-05-07T03:39:51;14.00;99.90
45339;DHT22;31071;51.478;5.710;2023-05-07T03:42:17;13.90;99.90
45339;DHT22;31071;51.478;5.710;2023-05-07T03:44:42;15.20;99.90
45339;DHT22;31071;51.478;5.710;2023-05-07T03:47:08;14.00;99.90
45339;DHT22;31071;51.478;5.710;2023-05-07T03:49:35;14.00;99.90
45339;DHT22;31071;51.478;5.710;2023-05-07T03:52:01;14.00;99.90
45339;DHT22;31071;51.478;5.710;2023-05-07T03:54:26;13.30;99.90
45339;DHT22;31071;51.478;5.710;2023-05-07T03:56:52;13.90;99.90
45339;DHT22;31071;51.478;5.710;2023-05-07T03:59:17;14.00;99.90
45339;DHT22;31071;51.478;5.710;2023-05-07T04:01:43;14.00;99.90
45339;DHT22;31071;51.478;5.710;2023-05-07T04:04:08;13.90;99.90
45339;DHT22;31071;51.478;5.710;2023-05-07T04:06:34;14.00;99.90
45339;DHT22;31071;51.478;5.710;2023-05-07T04:08:59;14.00;99.90
45339;DHT22;31071;51.478;5.710;2023-05-07T04:11:25;14.00;99.90
45339;DHT22;31071;51.478;5.710;2023-05-07T04:13:51;14.00;99.90
45339;DHT22;31071;51.478;5.710;2023-05-07T04:16:16;14.00;99.90
45339;DHT22;31071;51.478;5.710;2023-05-07T04:18:42;14.00;99.90
45339;DHT22;31071;51.478;5.710;2023-05-07T04:21:14;14.00;99.90
45339;DHT22;31071;51.478;5.710;2023-05-07T04:23:40;14.10;99.90
45339;DHT22;31071;51.478;5.710;2023-05-07T04:26:06;14.00;99.90
45339;DHT22;31071;51.478;5.710;2023-05-07T04:28:32;14.10;99.90
45339;DHT22;31071;51.478;5.710;2023-05-07T04:30:57;14.10;99.90
45339;DHT22;31071;51.478;5.710;2023-05-07T04:33:23;14.20;99.90
45339;DHT22;31071;51.478;5.710;2023-05-07T04:35:49;14.20;99.90
45339;DHT22;31071;51.478;5.710;2023-05-07T04:38:14;14.20;99.90
45339;DHT22;31071;51.478;5.710;2023-05-07T04:40:40;14.20;99.90
45339;DHT22;31071;51.478;5.710;2023-05-07T04:43:06;14.20;99.90
45339;DHT22;31071;51.478;5.710;2023-05-07T04:45:32;14.30;99.90
45339;DHT22;31071;51.478;5.710;2023-05-07T04:47:58;14.30;99.90
45339;DHT22;31071;51.478;5.710;2023-05-07T04:50:23;14.30;99.90
45339;DHT22;31071;51.478;5.710;2023-05-07T04:52:49;14.40;99.90
45339;DHT22;31071;51.478;5.710;2023-05-07T04:55:15;14.50;99.90
45339;DHT22;31071;51.478;5.710;2023-05-07T04:57:41;14.50;99.90
45339;DHT22;31071;51.478;5.710;2023-05-07T05:00:07;14.60;99.90
45339;DHT22;31071;51.478;5.710;2023-05-07T05:02:34;14.60;99.90
45339;DHT22;31071;51.478;5.710;2023-05-07T05:05:01;14.70;99.90
45339;DHT22;31071;51.478;5.710;2023-05-07T05:07:29;14.70;99.90
45339;DHT22;31071;51.478;5.710;2023-05-07T05:09:54;14.70;99.90
45339;DHT22;31071;51.478;5.710;2023-05-07T05:12:20;14.80;99.90
45339;DHT22;31071;51.478;5.710;2023-05-07T05:14:46;14.80;99.90
45339;DHT22;31071;51.478;5.710;2023-05-07T05:17:12;14.80;99.90
45339;DHT22;31071;51.478;5.710;2023-05-07T05:19:37;15.80;99.90
45339;DHT22;31071;51.478;5.710;2023-05-07T05:22:03;14.80;99.90
45339;DHT22;31071;51.478;5.710;2023-05-07T05:24:30;14.80;99.90
45339;DHT22;31071;51.478;5.710;2023-05-07T05:26:55;14.80;99.90
45339;DHT22;31071;51.478;5.710;2023-05-07T05:29:21;14.80;99.90
45339;DHT22;31071;51.478;5.710;2023-05-07T05:31:47;14.80;99.90
45339;DHT22;31071;51.478;5.710;2023-05-07T05:34:12;14.80;99.90
45339;DHT22;31071;51.478;5.710;2023-05-07T05:36:38;14.90;99.90
45339;DHT22;31071;51.478;5.710;2023-05-07T05:39:04;14.90;99.90
45339;DHT22;31071;51.478;5.710;2023-05-07T05:41:29;14.90;99.90
45339;DHT22;31071;51.478;5.710;2023-05-07T05:43:55;15.00;99.90
45339;DHT22;31071;51.478;5.710;2023-05-07T05:46:21;15.00;99.90
45339;DHT22;31071;51.478;5.710;2023-05-07T05:48:46;15.00;99.90
45339;DHT22;31071;51.478;5.710;2023-05-07T05:51:12;15.10;99.90
45339;DHT22;31071;51.478;5.710;2023-05-07T05:53:37;15.10;99.90
45339;DHT22;31071;51.478;5.710;2023-05-07T05:56:03;15.20;99.90
45339;DHT22;31071;51.478;5.710;2023-05-07T05:58:29;15.20;99.90
45339;DHT22;31071;51.478;5.710;2023-05-07T06:00:54;15.30;99.90
45339;DHT22;31071;51.478;5.710;2023-05-07T06:03:20;15.30;99.90
45339;DHT22;31071;51.478;5.710;2023-05-07T06:05:46;15.40;99.90
45339;DHT22;31071;51.478;5.710;2023-05-07T06:08:11;15.50;99.90
45339;DHT22;31071;51.478;5.710;2023-05-07T06:10:37;15.50;99.90
45339;DHT22;31071;51.478;5.710;2023-05-07T06:13:03;15.60;99.90
45339;DHT22;31071;51.478;5.710;2023-05-07T06:15:28;15.70;99.90
45339;DHT22;31071;51.478;5.710;2023-05-07T06:17:54;15.70;99.90
45339;DHT22;31071;51.478;5.710;2023-05-07T06:20:21;15.80;99.90
45339;DHT22;31071;51.478;5.710;2023-05-07T06:22:46;15.90;99.90
45339;DHT22;31071;51.478;5.710;2023-05-07T06:25:12;16.00;99.90
45339;DHT22;31071;51.478;5.710;2023-05-07T06:27:37;16.10;99.90
45339;DHT22;31071;51.478;5.710;2023-05-07T06:30:05;16.20;99.90
45339;DHT22;31071;51.478;5.710;2023-05-07T06:32:32;16.30;99.90
45339;DHT22;31071;51.478;5.710;2023-05-07T06:34:58;16.30;99.90
45339;DHT22;31071;51.478;5.710;2023-05-07T06:37:23;16.40;99.90
45339;DHT22;31071;51.478;5.710;2023-05-07T06:39:49;16.50;99.90
45339;DHT22;31071;51.478;5.710;2023-05-07T06:42:15;16.50;99.90
45339;DHT22;31071;51.478;5.710;2023-05-07T06:44:40;16.50;99.90
45339;DHT22;31071;51.478;5.710;2023-05-07T06:47:06;16.50;99.90
45339;DHT22;31071;51.478;5.710;2023-05-07T06:49:31;16.60;99.90
45339;DHT22;31071;51.478;5.710;2023-05-07T06:51:57;16.60;99.90
45339;DHT22;31071;51.478;5.710;2023-05-07T06:54:23;16.70;99.90
45339;DHT22;31071;51.478;5.710;2023-05-07T06:56:48;16.70;99.90
45339;DHT22;31071;51.478;5.710;2023-05-07T06:59:14;16.70;99.90
45339;DHT22;31071;51.478;5.710;2023-05-07T07:01:40;16.80;99.90
45339;DHT22;31071;51.478;5.710;2023-05-07T07:04:06;16.80;99.90
45339;DHT22;31071;51.478;5.710;2023-05-07T07:06:31;16.90;99.90
45339;DHT22;31071;51.478;5.710;2023-05-07T07:08:58;17.00;99.90
45339;DHT22;31071;51.478;5.710;2023-05-07T07:11:24;17.20;99.90
45339;DHT22;31071;51.478;5.710;2023-05-07T07:13:49;17.20;99.90
45339;DHT22;31071;51.478;5.710;2023-05-07T07:16:16;17.50;99.90
45339;DHT22;31071;51.478;5.710;2023-05-07T07:18:42;17.30;99.90
45339;DHT22;31071;51.478;5.710;2023-05-07T07:21:07;17.30;99.90
45339;DHT22;31071;51.478;5.710;2023-05-07T07:23:33;17.40;99.90
45339;DHT22;31071;51.478;5.710;2023-05-07T07:25:58;17.40;99.90
45339;DHT22;31071;51.478;5.710;2023-05-07T07:28:24;17.50;99.90
45339;DHT22;31071;51.478;5.710;2023-05-07T07:30:49;17.60;99.90
45339;DHT22;31071;51.478;5.710;2023-05-07T07:33:15;17.70;99.90
45339;DHT22;31071;51.478;5.710;2023-05-07T07:35:41;17.50;99.90
45339;DHT22;31071;51.478;5.710;2023-05-07T07:38:06;19.20;99.90
45339;DHT22;31071;51.478;5.710;2023-05-07T07:40:34;17.50;99.90
45339;DHT22;31071;51.478;5.710;2023-05-07T07:43:00;17.50;99.90
45339;DHT22;31071;51.478;5.710;2023-05-07T07:45:26;18.80;99.90
45339;DHT22;31071;51.478;5.710;2023-05-07T07:47:52;17.50;99.90
45339;DHT22;31071;51.478;5.710;2023-05-07T07:50:18;17.50;99.90
45339;DHT22;31071;51.478;5.710;2023-05-07T07:52:44;17.40;99.90
45339;DHT22;31071;51.478;5.710;2023-05-07T07:55:09;17.50;99.90
45339;DHT22;31071;51.478;5.710;2023-05-07T07:57:35;17.50;99.90
45339;DHT22;31071;51.478;5.710;2023-05-07T08:00:01;17.50;99.90
45339;DHT22;31071;51.478;5.710;2023-05-07T08:02:26;17.60;99.90
45339;DHT22;31071;51.478;5.710;2023-05-07T08:04:52;17.70;99.90
45339;DHT22;31071;51.478;5.710;2023-05-07T08:07:17;18.10;99.90
45339;DHT22;31071;51.478;5.710;2023-05-07T08:09:45;18.10;99.90
45339;DHT22;31071;51.478;5.710;2023-05-07T08:12:11;18.30;99.90
45339;DHT22;31071;51.478;5.710;2023-05-07T08:14:37;18.50;99.90
45339;DHT22;31071;51.478;5.710;2023-05-07T08:17:02;18.50;99.90
45339;DHT22;31071;51.478;5.710;2023-05-07T08:19:28;18.70;99.90
45339;DHT22;31071;51.478;5.710;2023-05-07T08:21:53;18.90;99.90
45339;DHT22;31071;51.478;5.710;2023-05-07T08:24:19;19.10;99.90
45339;DHT22;31071;51.478;5.710;2023-05-07T08:26:45;19.30;99.90
45339;DHT22;31071;51.478;5.710;2023-05-07T08:29:10;19.40;99.90
45339;DHT22;31071;51.478;5.710;2023-05-07T08:31:36;19.50;99.90
45339;DHT22;31071;51.478;5.710;2023-05-07T08:34:03;19.50;99.90
45339;DHT22;31071;51.478;5.710;2023-05-07T08:36:28;19.60;99.90
45339;DHT22;31071;51.478;5.710;2023-05-07T08:38:54;19.60;99.90
45339;DHT22;31071;51.478;5.710;2023-05-07T08:41:20;19.50;99.90
45339;DHT22;31071;51.478;5.710;2023-05-07T08:43:48;19.40;99.90
45339;DHT22;31071;51.478;5.710;2023-05-07T08:46:21;19.50;99.90
45339;DHT22;31071;51.478;5.710;2023-05-07T08:48:51;19.50;99.90
45339;DHT22;31071;51.478;5.710;2023-05-07T08:51:20;19.50;99.90
45339;DHT22;31071;51.478;5.710;2023-05-07T08:53:47;19.60;99.90
45339;DHT22;31071;51.478;5.710;2023-05-07T08:56:16;19.60;99.90
45339;DHT22;31071;51.478;5.710;2023-05-07T08:58:45;19.70;99.90
45339;DHT22;31071;51.478;5.710;2023-05-07T09:01:14;19.70;99.90
45339;DHT22;31071;51.478;5.710;2023-05-07T09:03:40;19.70;99.90
45339;DHT22;31071;51.478;5.710;2023-05-07T09:06:06;19.90;99.90
45339;DHT22;31071;51.478;5.710;2023-05-07T09:08:33;20.00;99.90
45339;DHT22;31071;51.478;5.710;2023-05-07T09:10:59;20.00;99.90
45339;DHT22;31071;51.478;5.710;2023-05-07T09:13:25;20.20;99.90
45339;DHT22;31071;51.478;5.710;2023-05-07T09:15:52;20.20;99.90
45339;DHT22;31071;51.478;5.710;2023-05-07T09:18:17;20.30;99.90
45339;DHT22;31071;51.478;5.710;2023-05-07T09:20:43;20.40;99.90
45339;DHT22;31071;51.478;5.710;2023-05-07T09:23:09;20.50;99.90
45339;DHT22;31071;51.478;5.710;2023-05-07T09:25:35;20.60;99.90
45339;DHT22;31071;51.478;5.710;2023-05-07T09:28:02;20.50;99.90
45339;DHT22;31071;51.478;5.710;2023-05-07T09:30:32;20.60;99.90
45339;DHT22;31071;51.478;5.710;2023-05-07T09:32:59;20.70;99.90
45339;DHT22;31071;51.478;5.710;2023-05-07T09:35:25;20.70;99.90
45339;DHT22;31071;51.478;5.710;2023-05-07T09:37:59;20.70;99.90
45339;DHT22;31071;51.478;5.710;2023-05-07T09:40:29;20.90;99.90
45339;DHT22;31071;51.478;5.710;2023-05-07T09:42:56;20.90;99.90
45339;DHT22;31071;51.478;5.710;2023-05-07T09:45:31;21.00;99.90
45339;DHT22;31071;51.478;5.710;2023-05-07T09:47:58;21.30;99.90
45339;DHT22;31071;51.478;5.710;2023-05-07T09:50:27;21.30;99.90
45339;DHT22;31071;51.478;5.710;2023-05-07T09:52:54;21.50;99.90
45339;DHT22;31071;51.478;5.710;2023-05-07T09:55:21;21.80;99.90
45339;DHT22;31071;51.478;5.710;2023-05-07T09:57:50;22.60;99.90
45339;DHT22;31071;51.478;5.710;2023-05-07T10:00:18;21.90;99.90
45339;DHT22;31071;51.478;5.710;2023-05-07T10:02:46;22.00;99.90
45339;DHT22;31071;51.478;5.710;2023-05-07T10:05:14;22.30;99.90
45339;DHT22;31071;51.478;5.710;2023-05-07T10:07:41;22.20;99.90
45339;DHT22;31071;51.478;5.710;2023-05-07T10:10:07;22.70;99.90
45339;DHT22;31071;51.478;5.710;2023-05-07T10:12:33;22.10;99.90
45339;DHT22;31071;51.478;5.710;2023-05-07T10:15:08;22.30;99.90
45339;DHT22;31071;51.478;5.710;2023-05-07T10:17:36;22.40;99.90
45339;DHT22;31071;51.478;5.710;2023-05-07T10:20:02;22.40;99.90
45339;DHT22;31071;51.478;5.710;2023-05-07T10:22:29;22.60;99.90
45339;DHT22;31071;51.478;5.710;2023-05-07T10:24:59;22.60;99.90
45339;DHT22;31071;51.478;5.710;2023-05-07T10:27:25;22.60;99.90
45339;DHT22;31071;51.478;5.710;2023-05-07T10:30:12;22.90;99.90
45339;DHT22;31071;51.478;5.710;2023-05-07T10:32:48;22.80;99.90
45339;DHT22;31071;51.478;5.710;2023-05-07T10:35:17;22.90;99.80
45339;DHT22;31071;51.478;5.710;2023-05-07T10:37:45;23.20;99.30
45339;DHT22;31071;51.478;5.710;2023-05-07T10:40:12;23.30;99.90
45339;DHT22;31071;51.478;5.710;2023-05-07T10:42:37;23.50;98.80
45339;DHT22;31071;51.478;5.710;2023-05-07T10:45:13;23.50;99.90
45339;DHT22;31071;51.478;5.710;2023-05-07T10:48:05;23.50;99.10
45339;DHT22;31071;51.478;5.710;2023-05-07T10:50:31;23.50;98.60
45339;DHT22;31071;51.478;5.710;2023-05-07T10:55:50;23.70;99.80
45339;DHT22;31071;51.478;5.710;2023-05-07T11:00:54;24.30;97.40
45339;DHT22;31071;51.478;5.710;2023-05-07T11:03:20;24.50;97.40
45339;DHT22;31071;51.478;5.710;2023-05-07T11:05:47;24.70;95.70
45339;DHT22;31071;51.478;5.710;2023-05-07T11:08:52;25.30;96.70
45339;DHT22;31071;51.478;5.710;2023-05-07T11:11:18;24.70;94.90
45339;DHT22;31071;51.478;5.710;2023-05-07T11:13:46;24.60;95.80
45339;DHT22;31071;51.478;5.710;2023-05-07T11:16:20;24.30;93.20
45339;DHT22;31071;51.478;5.710;2023-05-07T11:18:56;24.30;96.70
45339;DHT22;31071;51.478;5.710;2023-05-07T11:21:41;24.40;96.20
45339;DHT22;31071;51.478;5.710;2023-05-07T11:24:08;24.70;94.50
45339;DHT22;31071;51.478;5.710;2023-05-07T11:26:46;24.50;95.50
45339;DHT22;31071;51.478;5.710;2023-05-07T11:29:13;23.90;92.70
45339;DHT22;31071;51.478;5.710;2023-05-07T11:31:40;23.60;95.90
45339;DHT22;31071;51.478;5.710;2023-05-07T11:34:05;23.30;97.00
45339;DHT22;31071;51.478;5.710;2023-05-07T11:36:34;23.10;96.40
45339;DHT22;31071;51.478;5.710;2023-05-07T11:39:01;23.00;96.10
45339;DHT22;31071;51.478;5.710;2023-05-07T11:41:36;22.80;95.70
45339;DHT22;31071;51.478;5.710;2023-05-07T11:44:02;22.80;96.50
45339;DHT22;31071;51.478;5.710;2023-05-07T11:46:28;23.00;97.00
45339;DHT22;31071;51.478;5.710;2023-05-07T11:48:55;23.50;98.30
45339;DHT22;31071;51.478;5.710;2023-05-07T11:51:22;23.80;98.30
45339;DHT22;31071;51.478;5.710;2023-05-07T11:53:48;23.60;94.30
45339;DHT22;31071;51.478;5.710;2023-05-07T11:56:16;23.30;93.30
45339;DHT22;31071;51.478;5.710;2023-05-07T11:58:42;23.10;97.90
45339;DHT22;31071;51.478;5.710;2023-05-07T12:01:09;23.00;96.70
45339;DHT22;31071;51.478;5.710;2023-05-07T12:03:36;22.80;96.90
45339;DHT22;31071;51.478;5.710;2023-05-07T12:06:08;23.00;96.30
45339;DHT22;31071;51.478;5.710;2023-05-07T12:08:36;22.50;97.80
45339;DHT22;31071;51.478;5.710;2023-05-07T12:11:02;22.40;99.30
45339;DHT22;31071;51.478;5.710;2023-05-07T12:13:28;22.40;99.80
45339;DHT22;31071;51.478;5.710;2023-05-07T12:15:55;22.80;98.50
45339;DHT22;31071;51.478;5.710;2023-05-07T12:18:22;22.50;99.80
45339;DHT22;31071;51.478;5.710;2023-05-07T12:20:48;22.60;98.40
45339;DHT22;31071;51.478;5.710;2023-05-07T12:23:14;22.80;95.30
45339;DHT22;31071;51.478;5.710;2023-05-07T12:25:41;23.00;98.90
45339;DHT22;31071;51.478;5.710;2023-05-07T12:28:13;23.00;99.00
45339;DHT22;31071;51.478;5.710;2023-05-07T12:30:40;23.00;96.50
45339;DHT22;31071;51.478;5.710;2023-05-07T12:33:07;22.90;98.50
45339;DHT22;31071;51.478;5.710;2023-05-07T12:35:40;22.70;99.60
45339;DHT22;31071;51.478;5.710;2023-05-07T12:38:11;22.60;99.90
45339;DHT22;31071;51.478;5.710;2023-05-07T12:40:52;22.40;99.90
45339;DHT22;31071;51.478;5.710;2023-05-07T12:43:24;22.10;99.90
45339;DHT22;31071;51.478;5.710;2023-05-07T12:45:51;21.90;99.90
45339;DHT22;31071;51.478;5.710;2023-05-07T12:48:20;21.70;99.90
45339;DHT22;31071;51.478;5.710;2023-05-07T12:50:59;21.60;99.90
45339;DHT22;31071;51.478;5.710;2023-05-07T12:53:26;21.40;99.90
45339;DHT22;31071;51.478;5.710;2023-05-07T12:55:53;21.30;99.90
45339;DHT22;31071;51.478;5.710;2023-05-07T13:00:50;21.10;99.90
45339;DHT22;31071;51.478;5.710;2023-05-07T13:03:26;20.90;99.90
45339;DHT22;31071;51.478;5.710;2023-05-07T13:05:52;21.30;99.90
45339;DHT22;31071;51.478;5.710;2023-05-07T13:08:35;20.70;99.90
45339;DHT22;31071;51.478;5.710;2023-05-07T13:11:03;20.20;99.90
45339;DHT22;31071;51.478;5.710;2023-05-07T13:13:33;19.80;99.90
45339;DHT22;31071;51.478;5.710;2023-05-07T13:15:59;19.00;99.90
45339;DHT22;31071;51.478;5.710;2023-05-07T13:18:30;18.70;99.90
45339;DHT22;31071;51.478;5.710;2023-05-07T13:20:56;18.60;99.90
45339;DHT22;31071;51.478;5.710;2023-05-07T13:23:21;18.40;99.90
45339;DHT22;31071;51.478;5.710;2023-05-07T13:25:48;18.10;99.90
45339;DHT22;31071;51.478;5.710;2023-05-07T13:28:14;17.90;99.90
45339;DHT22;31071;51.478;5.710;2023-05-07T13:30:39;17.70;99.90
45339;DHT22;31071;51.478;5.710;2023-05-07T13:33:06;17.30;99.90
45339;DHT22;31071;51.478;5.710;2023-05-07T13:35:32;16.80;99.90
45339;DHT22;31071;51.478;5.710;2023-05-07T13:37:57;16.40;99.90
45339;DHT22;31071;51.478;5.710;2023-05-07T13:40:23;16.30;99.90
45339;DHT22;31071;51.478;5.710;2023-05-07T13:42:49;16.30;99.90
45339;DHT22;31071;51.478;5.710;2023-05-07T13:45:15;16.10;99.90
45339;DHT22;31071;51.478;5.710;2023-05-07T13:47:44;15.90;99.90
45339;DHT22;31071;51.478;5.710;2023-05-07T13:50:11;16.00;99.90
45339;DHT22;31071;51.478;5.710;2023-05-07T13:52:40;16.00;99.90
45339;DHT22;31071;51.478;5.710;2023-05-07T13:55:06;16.00;99.90
45339;DHT22;31071;51.478;5.710;2023-05-07T13:57:32;16.10;99.90
45339;DHT22;31071;51.478;5.710;2023-05-07T13:59:58;16.10;99.90
45339;DHT22;31071;51.478;5.710;2023-05-07T14:02:23;16.10;99.90
45339;DHT22;31071;51.478;5.710;2023-05-07T14:04:48;15.20;99.90
45339;DHT22;31071;51.478;5.710;2023-05-07T14:07:14;16.10;99.90
45339;DHT22;31071;51.478;5.710;2023-05-07T14:09:40;16.10;99.90
45339;DHT22;31071;51.478;5.710;2023-05-07T14:12:06;16.00;99.90
45339;DHT22;31071;51.478;5.710;2023-05-07T14:14:31;16.00;99.90
45339;DHT22;31071;51.478;5.710;2023-05-07T14:16:57;16.10;99.90
45339;DHT22;31071;51.478;5.710;2023-05-07T14:19:22;16.00;99.90
45339;DHT22;31071;51.478;5.710;2023-05-07T14:21:48;16.00;99.90
45339;DHT22;31071;51.478;5.710;2023-05-07T14:24:14;16.00;99.90
45339;DHT22;31071;51.478;5.710;2023-05-07T14:26:40;16.00;99.90
45339;DHT22;31071;51.478;5.710;2023-05-07T14:29:05;16.00;99.90
45339;DHT22;31071;51.478;5.710;2023-05-07T14:31:31;16.00;99.90
45339;DHT22;31071;51.478;5.710;2023-05-07T14:33:56;16.00;99.90
45339;DHT22;31071;51.478;5.710;2023-05-07T14:36:23;16.10;99.90
45339;DHT22;31071;51.478;5.710;2023-05-07T14:38:52;16.20;99.90
45339;DHT22;31071;51.478;5.710;2023-05-07T14:41:19;16.30;99.90
45339;DHT22;31071;51.478;5.710;2023-05-07T14:43:46;16.30;99.90
45339;DHT22;31071;51.478;5.710;2023-05-07T14:46:16;16.40;99.90
45339;DHT22;31071;51.478;5.710;2023-05-07T14:48:42;16.60;99.90
45339;DHT22;31071;51.478;5.710;2023-05-07T14:51:08;16.80;99.90
45339;DHT22;31071;51.478;5.710;2023-05-07T14:53:33;16.80;99.90
45339;DHT22;31071;51.478;5.710;2023-05-07T14:56:02;16.80;99.90
45339;DHT22;31071;51.478;5.710;2023-05-07T14:58:28;16.70;99.90
45339;DHT22;31071;51.478;5.710;2023-05-07T15:00:54;17.00;99.90
45339;DHT22;31071;51.478;5.710;2023-05-07T15:03:20;17.20;99.90
45339;DHT22;31071;51.478;5.710;2023-05-07T15:05:45;17.20;99.90
45339;DHT22;31071;51.478;5.710;2023-05-07T15:08:11;17.30;99.90
45339;DHT22;31071;51.478;5.710;2023-05-07T15:10:37;17.20;99.90
45339;DHT22;31071;51.478;5.710;2023-05-07T15:13:10;17.20;99.90
45339;DHT22;31071;51.478;5.710;2023-05-07T15:15:36;17.20;99.90
45339;DHT22;31071;51.478;5.710;2023-05-07T15:18:02;17.20;99.90
45339;DHT22;31071;51.478;5.710;2023-05-07T15:20:28;17.40;99.90
45339;DHT22;31071;51.478;5.710;2023-05-07T15:22:53;17.20;99.90
45339;DHT22;31071;51.478;5.710;2023-05-07T15:25:19;17.20;99.90
45339;DHT22;31071;51.478;5.710;2023-05-07T15:27:45;17.00;99.90
45339;DHT22;31071;51.478;5.710;2023-05-07T15:30:11;16.90;99.90
45339;DHT22;31071;51.478;5.710;2023-05-07T15:32:37;16.90;99.90
45339;DHT22;31071;51.478;5.710;2023-05-07T15:35:04;16.90;99.90